sensor_id;sensor_type;location;lat;lon;timestamp;P1;durP1;ratioP1;P2;durP2;ratioP2
8007;SDS011;4049;49.468;11.200;2023-04-16T00:01:54;8.63;;;5.33;;
8007;SDS011;4049;49.468;11.200;2023-04-16T00:04:21;9.17;;;5.53;;
8007;SDS011;4049;49.468;11.200;2023-04-16T00:06:48;8.47;;;5.80;;
8007;SDS011;4049;49.468;11.200;2023-04-16T00:09:16;8.03;;;5.63;;
8007;SDS011;4049;49.468;11.200;2023-04-16T00:11:43;7.57;;;5.40;;
8007;SDS011;4049;49.468;11.200;2023-04-16T00:14:09;7.63;;;5.23;;
8007;SDS011;4049;49.468;11.200;2023-04-16T00:16:36;8.40;;;5.53;;
8007;SDS011;4049;49.468;11.200;2023-04-16T00:19:03;9.20;;;5.90;;
8007;SDS011;4049;49.468;11.200;2023-04-16T00:21:30;9.47;;;6.27;;
8007;SDS011;4049;49.468;11.200;2023-04-16T00:23:57;8.70;;;5.90;;
8007;SDS011;4049;49.468;11.200;2023-04-16T00:26:25;9.83;;;6.23;;
8007;SDS011;4049;49.468;11.200;2023-04-16T00:28:52;8.97;;;5.37;;
8007;SDS011;4049;49.468;11.200;2023-04-16T00:31:24;8.27;;;5.67;;
8007;SDS011;4049;49.468;11.200;2023-04-16T00:33:52;7.33;;;5.33;;
8007;SDS011;4049;49.468;11.200;2023-04-16T00:36:19;6.90;;;5.20;;
8007;SDS011;4049;49.468;11.200;2023-04-16T00:38:46;10.43;;;5.87;;
8007;SDS011;4049;49.468;11.200;2023-04-16T00:41:12;10.27;;;5.50;;
8007;SDS011;4049;49.468;11.200;2023-04-16T00:43:41;7.67;;;5.43;;
8007;SDS011;4049;49.468;11.200;2023-04-16T00:46:07;8.00;;;5.47;;
8007;SDS011;4049;49.468;11.200;2023-04-16T00:48:34;8.97;;;5.73;;
8007;SDS011;4049;49.468;11.200;2023-04-16T00:51:03;8.77;;;5.97;;
8007;SDS011;4049;49.468;11.200;2023-04-16T00:53:31;9.00;;;5.73;;
8007;SDS011;4049;49.468;11.200;2023-04-16T00:55:59;8.83;;;5.70;;
8007;SDS011;4049;49.468;11.200;2023-04-16T00:58:27;9.50;;;5.83;;
8007;SDS011;4049;49.468;11.200;2023-04-16T01:00:56;10.13;;;6.33;;
8007;SDS011;4049;49.468;11.200;2023-04-16T01:03:23;8.73;;;5.77;;
8007;SDS011;4049;49.468;11.200;2023-04-16T01:05:59;9.77;;;6.17;;
8007;SDS011;4049;49.468;11.200;2023-04-16T01:08:26;9.27;;;5.77;;
8007;SDS011;4049;49.468;11.200;2023-04-16T01:10:53;10.30;;;6.70;;
8007;SDS011;4049;49.468;11.200;2023-04-16T01:13:20;9.73;;;5.73;;
8007;SDS011;4049;49.468;11.200;2023-04-16T01:15:47;9.77;;;6.10;;
8007;SDS011;4049;49.468;11.200;2023-04-16T01:18:15;9.13;;;6.33;;
8007;SDS011;4049;49.468;11.200;2023-04-16T01:20:44;9.27;;;6.07;;
8007;SDS011;4049;49.468;11.200;2023-04-16T01:23:11;10.97;;;6.77;;
8007;SDS011;4049;49.468;11.200;2023-04-16T01:25:38;10.23;;;6.20;;
8007;SDS011;4049;49.468;11.200;2023-04-16T01:28:05;10.83;;;6.33;;
8007;SDS011;4049;49.468;11.200;2023-04-16T01:30:32;10.43;;;6.87;;
8007;SDS011;4049;49.468;11.200;2023-04-16T01:32:59;10.37;;;5.83;;
8007;SDS011;4049;49.468;11.200;2023-04-16T01:35:26;9.87;;;6.17;;
8007;SDS011;4049;49.468;11.200;2023-04-16T01:37:54;10.03;;;6.67;;
8007;SDS011;4049;49.468;11.200;2023-04-16T01:40:21;9.43;;;5.77;;
8007;SDS011;4049;49.468;11.200;2023-04-16T01:42:48;9.40;;;6.07;;
8007;SDS011;4049;49.468;11.200;2023-04-16T01:45:15;9.10;;;6.07;;
8007;SDS011;4049;49.468;11.200;2023-04-16T01:47:41;10.17;;;6.67;;
8007;SDS011;4049;49.468;11.200;2023-04-16T01:50:09;8.67;;;5.57;;
8007;SDS011;4049;49.468;11.200;2023-04-16T01:52:36;9.97;;;6.43;;
8007;SDS011;4049;49.468;11.200;2023-04-16T01:55:04;10.80;;;6.10;;
8007;SDS011;4049;49.468;11.200;2023-04-16T01:57:32;10.53;;;6.40;;
8007;SDS011;4049;49.468;11.200;2023-04-16T01:59:58;9.37;;;6.50;;
8007;SDS011;4049;49.468;11.200;2023-04-16T02:02:25;9.97;;;6.20;;
8007;SDS011;4049;49.468;11.200;2023-04-16T02:04:53;12.00;;;6.80;;
8007;SDS011;4049;49.468;11.200;2023-04-16T02:07:23;10.40;;;6.60;;
8007;SDS011;4049;49.468;11.200;2023-04-16T02:09:51;11.00;;;6.77;;
8007;SDS011;4049;49.468;11.200;2023-04-16T02:12:19;9.83;;;6.20;;
8007;SDS011;4049;49.468;11.200;2023-04-16T02:14:46;9.90;;;6.30;;
8007;SDS011;4049;49.468;11.200;2023-04-16T02:17:13;11.37;;;7.00;;
8007;SDS011;4049;49.468;11.200;2023-04-16T02:19:41;11.17;;;6.43;;
8007;SDS011;4049;49.468;11.200;2023-04-16T02:22:08;9.83;;;6.00;;
8007;SDS011;4049;49.468;11.200;2023-04-16T02:24:34;9.70;;;6.23;;
8007;SDS011;4049;49.468;11.200;2023-04-16T02:27:01;9.77;;;6.03;;
8007;SDS011;4049;49.468;11.200;2023-04-16T02:29:29;10.70;;;6.77;;
8007;SDS011;4049;49.468;11.200;2023-04-16T02:31:56;10.53;;;6.50;;
8007;SDS011;4049;49.468;11.200;2023-04-16T02:34:24;10.63;;;6.60;;
8007;SDS011;4049;49.468;11.200;2023-04-16T02:36:50;10.03;;;6.50;;
8007;SDS011;4049;49.468;11.200;2023-04-16T02:39:18;10.53;;;6.50;;
8007;SDS011;4049;49.468;11.200;2023-04-16T02:41:45;10.30;;;6.87;;
8007;SDS011;4049;49.468;11.200;2023-04-16T02:44:11;9.77;;;5.83;;
8007;SDS011;4049;49.468;11.200;2023-04-16T02:46:40;13.07;;;6.30;;
8007;SDS011;4049;49.468;11.200;2023-04-16T02:49:06;11.47;;;6.40;;
8007;SDS011;4049;49.468;11.200;2023-04-16T02:51:33;10.13;;;6.10;;
8007;SDS011;4049;49.468;11.200;2023-04-16T02:54:00;10.37;;;6.03;;
8007;SDS011;4049;49.468;11.200;2023-04-16T02:56:27;9.07;;;5.90;;
8007;SDS011;4049;49.468;11.200;2023-04-16T02:58:54;10.53;;;6.63;;
8007;SDS011;4049;49.468;11.200;2023-04-16T03:01:20;10.13;;;6.70;;
8007;SDS011;4049;49.468;11.200;2023-04-16T03:03:48;9.30;;;5.90;;
8007;SDS011;4049;49.468;11.200;2023-04-16T03:06:15;11.30;;;6.27;;
8007;SDS011;4049;49.468;11.200;2023-04-16T03:08:42;9.87;;;6.10;;
8007;SDS011;4049;49.468;11.200;2023-04-16T03:11:09;10.53;;;6.30;;
8007;SDS011;4049;49.468;11.200;2023-04-16T03:13:36;10.13;;;5.80;;
8007;SDS011;4049;49.468;11.200;2023-04-16T03:16:03;11.03;;;6.37;;
8007;SDS011;4049;49.468;11.200;2023-04-16T03:18:30;9.20;;;5.70;;
8007;SDS011;4049;49.468;11.200;2023-04-16T03:20:58;11.03;;;6.53;;
8007;SDS011;4049;49.468;11.200;2023-04-16T03:23:25;12.07;;;6.47;;
8007;SDS011;4049;49.468;11.200;2023-04-16T03:25:52;10.30;;;6.03;;
8007;SDS011;4049;49.468;11.200;2023-04-16T03:28:19;11.37;;;6.47;;
8007;SDS011;4049;49.468;11.200;2023-04-16T03:30:49;11.60;;;6.70;;
8007;SDS011;4049;49.468;11.200;2023-04-16T03:33:16;11.17;;;6.53;;
8007;SDS011;4049;49.468;11.200;2023-04-16T03:35:43;14.30;;;7.20;;
8007;SDS011;4049;49.468;11.200;2023-04-16T03:38:11;12.17;;;6.73;;
8007;SDS011;4049;49.468;11.200;2023-04-16T03:40:38;12.40;;;6.77;;
8007;SDS011;4049;49.468;11.200;2023-04-16T03:43:05;12.97;;;6.93;;
8007;SDS011;4049;49.468;11.200;2023-04-16T03:45:32;14.57;;;6.77;;
8007;SDS011;4049;49.468;11.200;2023-04-16T03:47:59;12.33;;;7.37;;
8007;SDS011;4049;49.468;11.200;2023-04-16T03:50:25;13.43;;;7.77;;
8007;SDS011;4049;49.468;11.200;2023-04-16T03:52:52;12.37;;;6.97;;
8007;SDS011;4049;49.468;11.200;2023-04-16T03:55:20;13.17;;;7.53;;
8007;SDS011;4049;49.468;11.200;2023-04-16T03:57:47;12.07;;;7.03;;
8007;SDS011;4049;49.468;11.200;2023-04-16T04:00:14;11.07;;;6.40;;
8007;SDS011;4049;49.468;11.200;2023-04-16T04:02:41;10.17;;;6.37;;
8007;SDS011;4049;49.468;11.200;2023-04-16T04:05:08;13.40;;;6.70;;
8007;SDS011;4049;49.468;11.200;2023-04-16T04:07:35;10.33;;;6.47;;
8007;SDS011;4049;49.468;11.200;2023-04-16T04:10:01;12.37;;;6.47;;
8007;SDS011;4049;49.468;11.200;2023-04-16T04:12:30;10.30;;;5.67;;
8007;SDS011;4049;49.468;11.200;2023-04-16T04:14:57;10.27;;;5.60;;
8007;SDS011;4049;49.468;11.200;2023-04-16T04:17:24;10.40;;;5.67;;
8007;SDS011;4049;49.468;11.200;2023-04-16T04:19:50;9.70;;;5.43;;
8007;SDS011;4049;49.468;11.200;2023-04-16T04:22:18;10.90;;;5.30;;
8007;SDS011;4049;49.468;11.200;2023-04-16T04:24:45;9.33;;;5.17;;
8007;SDS011;4049;49.468;11.200;2023-04-16T04:27:12;7.93;;;4.73;;
8007;SDS011;4049;49.468;11.200;2023-04-16T04:29:40;9.73;;;5.47;;
8007;SDS011;4049;49.468;11.200;2023-04-16T04:32:07;7.73;;;4.60;;
8007;SDS011;4049;49.468;11.200;2023-04-16T04:34:34;8.77;;;5.07;;
8007;SDS011;4049;49.468;11.200;2023-04-16T04:37:00;9.43;;;4.37;;
8007;SDS011;4049;49.468;11.200;2023-04-16T04:39:27;8.67;;;4.87;;
8007;SDS011;4049;49.468;11.200;2023-04-16T04:41:55;7.37;;;4.63;;
8007;SDS011;4049;49.468;11.200;2023-04-16T04:44:22;6.73;;;4.40;;
8007;SDS011;4049;49.468;11.200;2023-04-16T04:46:50;8.47;;;5.00;;
8007;SDS011;4049;49.468;11.200;2023-04-16T04:49:17;6.93;;;4.33;;
8007;SDS011;4049;49.468;11.200;2023-04-16T04:51:44;7.80;;;4.63;;
8007;SDS011;4049;49.468;11.200;2023-04-16T04:54:11;6.30;;;4.20;;
8007;SDS011;4049;49.468;11.200;2023-04-16T04:56:38;8.13;;;4.57;;
8007;SDS011;4049;49.468;11.200;2023-04-16T04:59:05;6.73;;;3.97;;
8007;SDS011;4049;49.468;11.200;2023-04-16T05:01:31;5.63;;;3.80;;
8007;SDS011;4049;49.468;11.200;2023-04-16T05:04:00;6.43;;;3.80;;
8007;SDS011;4049;49.468;11.200;2023-04-16T05:06:26;7.97;;;4.27;;
8007;SDS011;4049;49.468;11.200;2023-04-16T05:08:53;7.83;;;4.87;;
8007;SDS011;4049;49.468;11.200;2023-04-16T05:11:20;7.43;;;5.10;;
8007;SDS011;4049;49.468;11.200;2023-04-16T05:13:47;10.37;;;5.03;;
8007;SDS011;4049;49.468;11.200;2023-04-16T05:16:14;9.10;;;5.07;;
8007;SDS011;4049;49.468;11.200;2023-04-16T05:18:40;9.77;;;5.10;;
8007;SDS011;4049;49.468;11.200;2023-04-16T05:21:09;9.87;;;5.33;;
8007;SDS011;4049;49.468;11.200;2023-04-16T05:23:35;7.73;;;4.30;;
8007;SDS011;4049;49.468;11.200;2023-04-16T05:26:02;7.47;;;4.63;;
8007;SDS011;4049;49.468;11.200;2023-04-16T05:28:29;9.03;;;5.50;;
8007;SDS011;4049;49.468;11.200;2023-04-16T05:30:56;9.53;;;4.97;;
8007;SDS011;4049;49.468;11.200;2023-04-16T05:33:23;9.00;;;5.40;;
8007;SDS011;4049;49.468;11.200;2023-04-16T05:35:50;8.07;;;4.97;;
8007;SDS011;4049;49.468;11.200;2023-04-16T05:38:18;10.83;;;6.37;;
8007;SDS011;4049;49.468;11.200;2023-04-16T05:40:45;10.00;;;6.17;;
8007;SDS011;4049;49.468;11.200;2023-04-16T05:43:13;11.63;;;6.50;;
8007;SDS011;4049;49.468;11.200;2023-04-16T05:45:40;9.23;;;5.43;;
8007;SDS011;4049;49.468;11.200;2023-04-16T05:48:07;8.53;;;5.03;;
8007;SDS011;4049;49.468;11.200;2023-04-16T05:50:34;8.80;;;5.10;;
8007;SDS011;4049;49.468;11.200;2023-04-16T05:53:01;8.00;;;5.07;;
8007;SDS011;4049;49.468;11.200;2023-04-16T05:55:32;9.07;;;5.33;;
8007;SDS011;4049;49.468;11.200;2023-04-16T05:57:59;9.53;;;5.77;;
8007;SDS011;4049;49.468;11.200;2023-04-16T06:00:28;11.53;;;6.63;;
8007;SDS011;4049;49.468;11.200;2023-04-16T06:02:55;9.03;;;5.73;;
8007;SDS011;4049;49.468;11.200;2023-04-16T06:05:22;11.80;;;6.93;;
8007;SDS011;4049;49.468;11.200;2023-04-16T06:07:50;8.67;;;4.93;;
8007;SDS011;4049;49.468;11.200;2023-04-16T06:10:17;7.73;;;4.63;;
8007;SDS011;4049;49.468;11.200;2023-04-16T06:12:45;8.20;;;4.90;;
8007;SDS011;4049;49.468;11.200;2023-04-16T06:15:12;9.30;;;4.57;;
8007;SDS011;4049;49.468;11.200;2023-04-16T06:17:39;9.60;;;5.47;;
8007;SDS011;4049;49.468;11.200;2023-04-16T06:20:06;8.57;;;4.63;;
8007;SDS011;4049;49.468;11.200;2023-04-16T06:22:34;9.20;;;4.93;;
8007;SDS011;4049;49.468;11.200;2023-04-16T06:25:00;10.27;;;5.07;;
8007;SDS011;4049;49.468;11.200;2023-04-16T06:27:28;11.60;;;5.37;;
8007;SDS011;4049;49.468;11.200;2023-04-16T06:29:57;10.40;;;4.73;;
8007;SDS011;4049;49.468;11.200;2023-04-16T06:32:24;10.77;;;5.00;;
8007;SDS011;4049;49.468;11.200;2023-04-16T06:34:51;10.53;;;6.10;;
8007;SDS011;4049;49.468;11.200;2023-04-16T06:37:18;10.83;;;5.20;;
8007;SDS011;4049;49.468;11.200;2023-04-16T06:39:45;10.47;;;5.20;;
8007;SDS011;4049;49.468;11.200;2023-04-16T06:42:11;9.93;;;5.17;;
8007;SDS011;4049;49.468;11.200;2023-04-16T06:44:38;9.47;;;4.60;;
8007;SDS011;4049;49.468;11.200;2023-04-16T06:47:06;7.17;;;4.37;;
8007;SDS011;4049;49.468;11.200;2023-04-16T06:49:33;8.00;;;3.97;;
8007;SDS011;4049;49.468;11.200;2023-04-16T06:52:00;8.13;;;4.80;;
8007;SDS011;4049;49.468;11.200;2023-04-16T06:54:27;7.00;;;4.00;;
8007;SDS011;4049;49.468;11.200;2023-04-16T06:56:54;7.27;;;4.10;;
8007;SDS011;4049;49.468;11.200;2023-04-16T06:59:21;9.90;;;5.77;;
8007;SDS011;4049;49.468;11.200;2023-04-16T07:01:48;9.80;;;5.43;;
8007;SDS011;4049;49.468;11.200;2023-04-16T07:04:16;6.50;;;3.83;;
8007;SDS011;4049;49.468;11.200;2023-04-16T07:06:43;8.63;;;4.93;;
8007;SDS011;4049;49.468;11.200;2023-04-16T07:09:10;5.97;;;3.53;;
8007;SDS011;4049;49.468;11.200;2023-04-16T07:11:37;7.10;;;3.87;;
8007;SDS011;4049;49.468;11.200;2023-04-16T07:14:04;5.47;;;3.60;;
8007;SDS011;4049;49.468;11.200;2023-04-16T07:16:31;5.97;;;3.60;;
8007;SDS011;4049;49.468;11.200;2023-04-16T07:18:58;5.53;;;2.80;;
8007;SDS011;4049;49.468;11.200;2023-04-16T07:21:26;5.43;;;3.27;;
8007;SDS011;4049;49.468;11.200;2023-04-16T07:23:53;7.53;;;3.80;;
8007;SDS011;4049;49.468;11.200;2023-04-16T07:26:20;5.27;;;3.57;;
8007;SDS011;4049;49.468;11.200;2023-04-16T07:28:47;7.47;;;4.17;;
8007;SDS011;4049;49.468;11.200;2023-04-16T07:31:14;5.17;;;3.07;;
8007;SDS011;4049;49.468;11.200;2023-04-16T07:33:41;8.03;;;5.80;;
8007;SDS011;4049;49.468;11.200;2023-04-16T07:36:08;8.03;;;4.87;;
8007;SDS011;4049;49.468;11.200;2023-04-16T07:38:36;6.97;;;4.10;;
8007;SDS011;4049;49.468;11.200;2023-04-16T07:41:03;6.90;;;3.87;;
8007;SDS011;4049;49.468;11.200;2023-04-16T07:43:30;4.80;;;2.93;;
8007;SDS011;4049;49.468;11.200;2023-04-16T07:45:56;4.43;;;2.47;;
8007;SDS011;4049;49.468;11.200;2023-04-16T07:48:23;3.87;;;2.83;;
8007;SDS011;4049;49.468;11.200;2023-04-16T07:50:51;4.40;;;2.90;;
8007;SDS011;4049;49.468;11.200;2023-04-16T07:53:18;4.53;;;2.70;;
8007;SDS011;4049;49.468;11.200;2023-04-16T07:55:46;5.50;;;3.23;;
8007;SDS011;4049;49.468;11.200;2023-04-16T07:58:13;5.60;;;3.03;;
8007;SDS011;4049;49.468;11.200;2023-04-16T08:00:39;4.50;;;2.60;;
8007;SDS011;4049;49.468;11.200;2023-04-16T08:03:06;4.77;;;2.87;;
8007;SDS011;4049;49.468;11.200;2023-04-16T08:05:33;3.90;;;2.70;;
8007;SDS011;4049;49.468;11.200;2023-04-16T08:08:02;3.33;;;2.50;;
8007;SDS011;4049;49.468;11.200;2023-04-16T08:10:29;4.00;;;2.93;;
8007;SDS011;4049;49.468;11.200;2023-04-16T08:12:57;1.90;;;1.70;;
8007;SDS011;4049;49.468;11.200;2023-04-16T08:15:25;2.93;;;2.07;;
8007;SDS011;4049;49.468;11.200;2023-04-16T08:17:53;3.00;;;2.03;;
8007;SDS011;4049;49.468;11.200;2023-04-16T08:20:19;2.50;;;2.10;;
8007;SDS011;4049;49.468;11.200;2023-04-16T08:22:46;3.37;;;1.90;;
8007;SDS011;4049;49.468;11.200;2023-04-16T08:25:13;2.23;;;1.90;;
8007;SDS011;4049;49.468;11.200;2023-04-16T08:27:40;4.10;;;2.27;;
8007;SDS011;4049;49.468;11.200;2023-04-16T08:30:08;2.70;;;1.63;;
8007;SDS011;4049;49.468;11.200;2023-04-16T08:32:36;1.80;;;1.60;;
8007;SDS011;4049;49.468;11.200;2023-04-16T08:35:03;2.47;;;1.83;;
8007;SDS011;4049;49.468;11.200;2023-04-16T08:37:30;2.80;;;1.80;;
8007;SDS011;4049;49.468;11.200;2023-04-16T08:39:57;1.77;;;1.40;;
8007;SDS011;4049;49.468;11.200;2023-04-16T08:42:28;2.27;;;1.73;;
8007;SDS011;4049;49.468;11.200;2023-04-16T08:44:58;1.80;;;1.20;;
8007;SDS011;4049;49.468;11.200;2023-04-16T08:47:33;1.40;;;1.30;;
8007;SDS011;4049;49.468;11.200;2023-04-16T08:50:02;1.87;;;1.60;;
8007;SDS011;4049;49.468;11.200;2023-04-16T08:52:30;1.40;;;1.30;;
8007;SDS011;4049;49.468;11.200;2023-04-16T08:55:01;1.43;;;1.30;;
8007;SDS011;4049;49.468;11.200;2023-04-16T08:57:34;1.30;;;1.20;;
8007;SDS011;4049;49.468;11.200;2023-04-16T09:00:05;1.67;;;1.57;;
8007;SDS011;4049;49.468;11.200;2023-04-16T09:02:35;2.07;;;1.40;;
8007;SDS011;4049;49.468;11.200;2023-04-16T09:05:04;1.30;;;1.20;;
8007;SDS011;4049;49.468;11.200;2023-04-16T09:07:32;2.03;;;1.50;;
8007;SDS011;4049;49.468;11.200;2023-04-16T09:10:00;2.27;;;1.50;;
8007;SDS011;4049;49.468;11.200;2023-04-16T09:12:26;1.40;;;1.30;;
8007;SDS011;4049;49.468;11.200;2023-04-16T09:14:55;1.40;;;1.03;;
8007;SDS011;4049;49.468;11.200;2023-04-16T09:17:23;1.43;;;1.00;;
8007;SDS011;4049;49.468;11.200;2023-04-16T09:19:52;1.90;;;1.10;;
8007;SDS011;4049;49.468;11.200;2023-04-16T09:22:19;1.77;;;1.53;;
8007;SDS011;4049;49.468;11.200;2023-04-16T09:24:46;1.27;;;1.17;;
8007;SDS011;4049;49.468;11.200;2023-04-16T09:27:13;1.47;;;1.10;;
8007;SDS011;4049;49.468;11.200;2023-04-16T09:29:40;1.43;;;1.10;;
8007;SDS011;4049;49.468;11.200;2023-04-16T09:32:08;1.27;;;1.10;;
8007;SDS011;4049;49.468;11.200;2023-04-16T09:37:23;1.10;;;1.00;;
8007;SDS011;4049;49.468;11.200;2023-04-16T09:39:52;1.10;;;1.00;;
8007;SDS011;4049;49.468;11.200;2023-04-16T09:42:20;1.60;;;1.23;;
8007;SDS011;4049;49.468;11.200;2023-04-16T09:44:49;2.07;;;1.13;;
8007;SDS011;4049;49.468;11.200;2023-04-16T09:47:16;1.33;;;1.00;;
8007;SDS011;4049;49.468;11.200;2023-04-16T09:49:43;1.43;;;1.33;;
8007;SDS011;4049;49.468;11.200;2023-04-16T09:52:13;6.37;;;3.97;;
8007;SDS011;4049;49.468;11.200;2023-04-16T09:54:47;8.23;;;4.93;;
8007;SDS011;4049;49.468;11.200;2023-04-16T09:57:17;5.03;;;3.33;;
8007;SDS011;4049;49.468;11.200;2023-04-16T09:59:46;4.67;;;3.13;;
8007;SDS011;4049;49.468;11.200;2023-04-16T10:02:13;3.40;;;2.33;;
8007;SDS011;4049;49.468;11.200;2023-04-16T10:04:46;2.10;;;1.50;;
8007;SDS011;4049;49.468;11.200;2023-04-16T10:07:15;2.00;;;1.60;;
8007;SDS011;4049;49.468;11.200;2023-04-16T10:09:43;2.20;;;1.90;;
8007;SDS011;4049;49.468;11.200;2023-04-16T10:12:10;2.00;;;1.53;;
8007;SDS011;4049;49.468;11.200;2023-04-16T10:14:37;2.27;;;1.63;;
8007;SDS011;4049;49.468;11.200;2023-04-16T10:17:04;2.00;;;1.60;;
8007;SDS011;4049;49.468;11.200;2023-04-16T10:19:32;3.10;;;1.90;;
8007;SDS011;4049;49.468;11.200;2023-04-16T10:22:00;2.13;;;1.73;;
8007;SDS011;4049;49.468;11.200;2023-04-16T10:24:28;1.50;;;1.40;;
8007;SDS011;4049;49.468;11.200;2023-04-16T10:26:56;2.10;;;1.70;;
8007;SDS011;4049;49.468;11.200;2023-04-16T10:29:24;2.20;;;1.73;;
8007;SDS011;4049;49.468;11.200;2023-04-16T10:31:53;2.87;;;2.10;;
8007;SDS011;4049;49.468;11.200;2023-04-16T10:34:21;2.57;;;2.00;;
8007;SDS011;4049;49.468;11.200;2023-04-16T10:36:49;1.50;;;1.40;;
8007;SDS011;4049;49.468;11.200;2023-04-16T10:39:18;2.00;;;1.40;;
8007;SDS011;4049;49.468;11.200;2023-04-16T10:41:48;4.00;;;2.27;;
8007;SDS011;4049;49.468;11.200;2023-04-16T10:44:15;3.17;;;1.43;;
8007;SDS011;4049;49.468;11.200;2023-04-16T10:46:44;4.23;;;1.90;;
8007;SDS011;4049;49.468;11.200;2023-04-16T10:49:13;3.33;;;2.17;;
8007;SDS011;4049;49.468;11.200;2023-04-16T10:51:42;1.70;;;1.40;;
8007;SDS011;4049;49.468;11.200;2023-04-16T10:54:19;2.70;;;1.50;;
8007;SDS011;4049;49.468;11.200;2023-04-16T10:56:49;3.37;;;1.10;;
8007;SDS011;4049;49.468;11.200;2023-04-16T10:59:17;2.23;;;1.70;;
8007;SDS011;4049;49.468;11.200;2023-04-16T11:01:46;1.63;;;1.50;;
8007;SDS011;4049;49.468;11.200;2023-04-16T11:04:33;1.93;;;1.40;;
8007;SDS011;4049;49.468;11.200;2023-04-16T11:07:03;2.53;;;1.60;;
8007;SDS011;4049;49.468;11.200;2023-04-16T11:09:50;1.90;;;1.50;;
8007;SDS011;4049;49.468;11.200;2023-04-16T11:12:19;1.67;;;1.57;;
8007;SDS011;4049;49.468;11.200;2023-04-16T11:14:48;1.70;;;1.30;;
8007;SDS011;4049;49.468;11.200;2023-04-16T11:17:16;1.30;;;1.20;;
8007;SDS011;4049;49.468;11.200;2023-04-16T11:19:43;1.77;;;1.50;;
8007;SDS011;4049;49.468;11.200;2023-04-16T11:22:14;1.80;;;1.40;;
8007;SDS011;4049;49.468;11.200;2023-04-16T11:24:42;2.00;;;1.50;;
8007;SDS011;4049;49.468;11.200;2023-04-16T11:27:11;1.63;;;1.47;;
8007;SDS011;4049;49.468;11.200;2023-04-16T11:29:40;1.60;;;1.40;;
8007;SDS011;4049;49.468;11.200;2023-04-16T11:32:07;1.53;;;1.40;;
8007;SDS011;4049;49.468;11.200;2023-04-16T11:34:41;1.80;;;1.33;;
8007;SDS011;4049;49.468;11.200;2023-04-16T11:37:09;1.77;;;1.40;;
8007;SDS011;4049;49.468;11.200;2023-04-16T11:39:46;1.63;;;1.53;;
8007;SDS011;4049;49.468;11.200;2023-04-16T11:42:20;1.87;;;1.50;;
8007;SDS011;4049;49.468;11.200;2023-04-16T11:44:52;1.73;;;1.40;;
8007;SDS011;4049;49.468;11.200;2023-04-16T11:47:20;1.40;;;1.30;;
8007;SDS011;4049;49.468;11.200;2023-04-16T11:49:48;3.00;;;1.20;;
8007;SDS011;4049;49.468;11.200;2023-04-16T11:52:23;1.50;;;1.30;;
8007;SDS011;4049;49.468;11.200;2023-04-16T11:54:52;3.17;;;1.20;;
8007;SDS011;4049;49.468;11.200;2023-04-16T11:57:25;1.40;;;1.23;;
8007;SDS011;4049;49.468;11.200;2023-04-16T11:59:54;1.60;;;1.40;;
8007;SDS011;4049;49.468;11.200;2023-04-16T12:02:34;1.57;;;1.27;;
8007;SDS011;4049;49.468;11.200;2023-04-16T12:05:02;1.90;;;1.37;;
8007;SDS011;4049;49.468;11.200;2023-04-16T12:07:29;2.13;;;1.77;;
8007;SDS011;4049;49.468;11.200;2023-04-16T12:10:03;2.23;;;1.40;;
8007;SDS011;4049;49.468;11.200;2023-04-16T12:12:32;1.83;;;1.43;;
8007;SDS011;4049;49.468;11.200;2023-04-16T12:15:01;2.07;;;1.60;;
8007;SDS011;4049;49.468;11.200;2023-04-16T12:17:28;2.50;;;1.87;;
8007;SDS011;4049;49.468;11.200;2023-04-16T12:19:57;2.07;;;1.27;;
8007;SDS011;4049;49.468;11.200;2023-04-16T12:22:26;1.70;;;1.50;;
8007;SDS011;4049;49.468;11.200;2023-04-16T12:24:54;1.50;;;1.40;;
8007;SDS011;4049;49.468;11.200;2023-04-16T12:27:23;1.23;;;1.13;;
8007;SDS011;4049;49.468;11.200;2023-04-16T12:30:03;2.00;;;1.60;;
8007;SDS011;4049;49.468;11.200;2023-04-16T12:32:31;1.27;;;1.17;;
8007;SDS011;4049;49.468;11.200;2023-04-16T12:34:58;1.47;;;1.27;;
8007;SDS011;4049;49.468;11.200;2023-04-16T12:37:25;1.30;;;1.20;;
8007;SDS011;4049;49.468;11.200;2023-04-16T12:39:52;1.17;;;0.90;;
8007;SDS011;4049;49.468;11.200;2023-04-16T12:42:19;1.33;;;1.20;;
8007;SDS011;4049;49.468;11.200;2023-04-16T12:44:46;1.43;;;1.23;;
8007;SDS011;4049;49.468;11.200;2023-04-16T12:47:14;1.30;;;1.20;;
8007;SDS011;4049;49.468;11.200;2023-04-16T12:49:41;1.67;;;1.40;;
8007;SDS011;4049;49.468;11.200;2023-04-16T12:52:08;1.70;;;1.40;;
8007;SDS011;4049;49.468;11.200;2023-04-16T12:54:35;1.80;;;1.43;;
8007;SDS011;4049;49.468;11.200;2023-04-16T12:57:02;1.80;;;1.40;;
8007;SDS011;4049;49.468;11.200;2023-04-16T12:59:29;2.30;;;1.40;;
8007;SDS011;4049;49.468;11.200;2023-04-16T13:01:56;1.27;;;1.17;;
8007;SDS011;4049;49.468;11.200;2023-04-16T13:04:24;1.50;;;1.40;;
8007;SDS011;4049;49.468;11.200;2023-04-16T13:06:50;1.50;;;1.37;;
8007;SDS011;4049;49.468;11.200;2023-04-16T13:09:17;2.17;;;1.40;;
8007;SDS011;4049;49.468;11.200;2023-04-16T13:11:44;2.87;;;1.90;;
8007;SDS011;4049;49.468;11.200;2023-04-16T13:14:11;1.97;;;1.70;;
8007;SDS011;4049;49.468;11.200;2023-04-16T13:16:38;1.50;;;1.30;;
8007;SDS011;4049;49.468;11.200;2023-04-16T13:19:05;1.80;;;1.57;;
8007;SDS011;4049;49.468;11.200;2023-04-16T13:21:33;1.80;;;1.60;;
8007;SDS011;4049;49.468;11.200;2023-04-16T13:24:00;1.47;;;1.23;;
8007;SDS011;4049;49.468;11.200;2023-04-16T13:26:27;1.43;;;1.33;;
8007;SDS011;4049;49.468;11.200;2023-04-16T13:28:54;1.40;;;1.30;;
8007;SDS011;4049;49.468;11.200;2023-04-16T13:31:20;2.67;;;1.80;;
8007;SDS011;4049;49.468;11.200;2023-04-16T13:33:47;1.73;;;1.60;;
8007;SDS011;4049;49.468;11.200;2023-04-16T13:36:15;2.17;;;1.80;;
8007;SDS011;4049;49.468;11.200;2023-04-16T13:38:43;3.03;;;1.80;;
8007;SDS011;4049;49.468;11.200;2023-04-16T13:41:10;2.00;;;1.80;;
8007;SDS011;4049;49.468;11.200;2023-04-16T13:43:37;1.83;;;1.50;;
8007;SDS011;4049;49.468;11.200;2023-04-16T13:46:04;1.90;;;1.67;;
8007;SDS011;4049;49.468;11.200;2023-04-16T13:48:31;1.90;;;1.70;;
8007;SDS011;4049;49.468;11.200;2023-04-16T13:50:58;1.73;;;1.37;;
8007;SDS011;4049;49.468;11.200;2023-04-16T13:53:25;2.53;;;1.73;;
8007;SDS011;4049;49.468;11.200;2023-04-16T13:55:53;2.73;;;1.63;;
8007;SDS011;4049;49.468;11.200;2023-04-16T13:58:20;2.13;;;1.57;;
8007;SDS011;4049;49.468;11.200;2023-04-16T14:00:46;1.93;;;1.50;;
8007;SDS011;4049;49.468;11.200;2023-04-16T14:03:13;1.90;;;1.60;;
8007;SDS011;4049;49.468;11.200;2023-04-16T14:05:40;1.60;;;1.50;;
8007;SDS011;4049;49.468;11.200;2023-04-16T14:08:07;2.13;;;1.93;;
8007;SDS011;4049;49.468;11.200;2023-04-16T14:10:37;3.07;;;1.70;;
8007;SDS011;4049;49.468;11.200;2023-04-16T14:13:05;2.80;;;1.60;;
8007;SDS011;4049;49.468;11.200;2023-04-16T14:15:32;1.83;;;1.50;;
8007;SDS011;4049;49.468;11.200;2023-04-16T14:17:58;1.63;;;1.40;;
8007;SDS011;4049;49.468;11.200;2023-04-16T14:20:27;2.00;;;1.80;;
8007;SDS011;4049;49.468;11.200;2023-04-16T14:22:54;7.13;;;3.93;;
8007;SDS011;4049;49.468;11.200;2023-04-16T14:25:23;7.53;;;4.80;;
8007;SDS011;4049;49.468;11.200;2023-04-16T14:27:51;2.97;;;2.30;;
8007;SDS011;4049;49.468;11.200;2023-04-16T14:30:19;3.13;;;2.33;;
8007;SDS011;4049;49.468;11.200;2023-04-16T14:32:46;2.37;;;1.67;;
8007;SDS011;4049;49.468;11.200;2023-04-16T14:35:13;3.33;;;1.90;;
8007;SDS011;4049;49.468;11.200;2023-04-16T14:37:40;1.90;;;1.60;;
8007;SDS011;4049;49.468;11.200;2023-04-16T14:40:07;1.80;;;1.60;;
8007;SDS011;4049;49.468;11.200;2023-04-16T14:42:36;1.90;;;1.47;;
8007;SDS011;4049;49.468;11.200;2023-04-16T14:45:04;2.20;;;1.70;;
8007;SDS011;4049;49.468;11.200;2023-04-16T14:47:33;1.63;;;1.50;;
8007;SDS011;4049;49.468;11.200;2023-04-16T14:50:01;2.87;;;1.77;;
8007;SDS011;4049;49.468;11.200;2023-04-16T14:52:28;1.47;;;1.37;;
8007;SDS011;4049;49.468;11.200;2023-04-16T14:54:56;2.07;;;1.70;;
8007;SDS011;4049;49.468;11.200;2023-04-16T14:57:23;1.70;;;1.40;;
8007;SDS011;4049;49.468;11.200;2023-04-16T14:59:53;2.00;;;1.40;;
8007;SDS011;4049;49.468;11.200;2023-04-16T15:02:20;2.23;;;1.73;;
8007;SDS011;4049;49.468;11.200;2023-04-16T15:04:48;2.07;;;1.50;;